Time,TemperatureF,DewpointF,PressureIn,WindDirection,WindDirectionDegrees,WindSpeedMPH,WindSpeedGustMPH,Humidity,HourlyPrecipIn,Conditions,Clouds,dailyrainin,SolarRadiationWatts/m^2,SoftwareType,DateUTC
2013-05-27 00:00:00,67.6,60.1,30.02,ENE,77,7.0,12.0,77,0.00,CLR,SCT,0.00,0.0,WeatherDisplay:10.37,2013-05-27 10:00:00,
2013-05-27 00:10:00,67.6,60.5,30.02,ENE,77,6.0,12.0,78,0.00,CLR,SCT,0.00,0.0,WeatherDisplay:10.37,2013-05-27 10:10:00,
2013-05-27 00:20:00,67.5,60.8,30.01,East,97,7.0,15.0,79,0.00,CLR,SCT,0.00,0.0,WeatherDisplay:10.37,2013-05-27 10:20:00,
2013-05-27 00:30:00,67.2,60.5,30.01,ESE,112,5.0,13.0,79,0.00,CLR,SCT,0.00,0.0,WeatherDisplay:10.37,2013-05-27 10:30:00,
2013-05-27 00:40:00,67.0,60.3,30.01,East,92,8.0,12.0,79,0.00,CLR,SCT,0.00,0.0,WeatherDisplay:10.37,2013-05-27 10:40:00,
2013-05-27 00:50:00,67.3,60.6,30.01,East,83,6.0,13.0,79,0.00,CLR,SCT,0.00,0.0,WeatherDisplay:10.37,2013-05-27 10:50:00,
2013-05-27 01:00:00,67.1,61.1,30.00,ENE,67,8.0,12.0,81,0.00,CLR,SCT,0.00,0.0,WeatherDisplay:10.37,2013-05-27 11:00:00,
2013-05-27 01:10:00,67.1,60.0,30.00,East,80,8.0,16.0,78,0.00,CLR,SCT,0.00,0.0,WeatherDisplay:10.37,2013-05-27 11:10:00,
2013-05-27 01:20:00,67.5,60.0,30.00,East,83,6.0,12.0,77,0.00,CLR,SCT,0.00,0.0,WeatherDisplay:10.37,2013-05-27 11:20:00,
2013-05-27 01:30:00,67.5,59.6,29.99,ENE,75,6.0,13.0,76,0.00,CLR,SCT,0.00,0.0,WeatherDisplay:10.37,2013-05-27 11:30:00,
2013-05-27 01:40:00,67.6,59.4,29.99,East,88,7.0,17.0,75,0.00,CLR,SCT,0.00,0.0,WeatherDisplay:10.37,2013-05-27 11:40:00,
2013-05-27 01:50:00,67.6,59.8,29.99,East,85,8.0,14.0,76,0.00,CLR,SCT,0.00,0.0,WeatherDisplay:10.37,2013-05-27 11:50:00,
2013-05-27 02:00:00,67.3,59.8,29.98,East,83,9.0,18.0,77,0.00,CLR,SCT,0.00,0.0,WeatherDisplay:10.37,2013-05-27 12:00:00,
2013-05-27 02:10:00,67.4,59.9,29.98,East,86,8.0,21.0,77,0.00,CLR,SCT,0.00,0.0,WeatherDisplay:10.37,2013-05-27 12:10:00,
2013-05-27 02:20:00,67.5,59.7,29.98,ENE,75,8.0,18.0,76,0.00,CLR,SCT,0.00,0.0,WeatherDisplay:10.37,2013-05-27 12:20:00,
2013-05-27 02:30:00,67.5,60.0,29.98,ENE,73,7.0,15.0,77,0.00,CLR,SCT,0.00,0.0,WeatherDisplay:10.37,2013-05-27 12:30:00,
2013-05-27 02:40:00,67.4,59.9,29.97,ENE,71,9.0,15.0,77,0.00,CLR,SCT,0.00,0.0,WeatherDisplay:10.37,2013-05-27 12:40:00,
2013-05-27 02:50:00,67.3,59.5,29.97,ENE,77,9.0,17.0,76,0.00,CLR,SCT,0.00,0.0,WeatherDisplay:10.37,2013-05-27 12:50:00,
2013-05-27 03:00:00,67.5,59.3,29.97,East,82,6.0,13.0,75,0.00,CLR,SCT,0.00,0.0,WeatherDisplay:10.37,2013-05-27 13:00:00,
2013-05-27 03:10:00,67.2,59.0,29.97,East,101,6.0,12.0,75,0.00,CLR,SCT,0.00,0.0,WeatherDisplay:10.37,2013-05-27 13:10:00,
2013-05-27 03:20:00,67.2,59.0,29.97,East,85,2.0,12.0,75,0.00,CLR,SCT,0.00,0.0,WeatherDisplay:10.37,2013-05-27 13:20:00,
2013-05-27 03:30:00,67.0,59.9,29.97,East,91,7.0,15.0,78,0.00,CLR,SCT,0.00,0.0,WeatherDisplay:10.37,2013-05-27 13:30:00,
2013-05-27 03:40:00,66.9,60.2,29.96,East,99,7.0,15.0,79,0.00,CLR,SCT,0.00,0.0,WeatherDisplay:10.37,2013-05-27 13:40:00,
2013-05-27 03:50:00,66.9,59.8,29.96,East,85,7.0,12.0,78,0.00,CLR,SCT,0.00,0.0,WeatherDisplay:10.37,2013-05-27 13:50:00,
2013-05-27 04:00:00,66.9,59.1,29.97,ESE,109,1.0,12.0,76,0.00,CLR,SCT,0.00,0.0,WeatherDisplay:10.37,2013-05-27 14:00:00,
2013-05-27 04:10:00,67.0,59.2,29.96,East,90,5.0,14.0,76,0.00,CLR,SCT,0.00,0.0,WeatherDisplay:10.37,2013-05-27 14:10:00,
2013-05-27 04:20:00,67.1,58.9,29.97,East,94,3.0,12.0,75,0.00,CLR,SCT,0.00,0.0,WeatherDisplay:10.37,2013-05-27 14:20:00,
2013-05-27 04:30:00,67.0,59.2,29.97,East,79,2.0,10.0,76,0.00,CLR,SCT,0.00,0.0,WeatherDisplay:10.37,2013-05-27 14:30:00,
2013-05-27 04:40:00,66.7,59.6,29.97,East,82,5.0,12.0,78,0.00,CLR,SCT,0.00,0.0,WeatherDisplay:10.37,2013-05-27 14:40:00,
2013-05-27 04:50:00,66.6,59.5,29.96,East,81,5.0,13.0,78,0.00,CLR,SCT,0.00,0.0,WeatherDisplay:10.37,2013-05-27 14:50:00,
2013-05-27 05:00:00,66.8,60.4,29.96,East,80,12.0,20.0,80,0.00,CLR,SCT,0.00,0.0,WeatherDisplay:10.37,2013-05-27 15:00:00,
2013-05-27 05:10:00,67.1,60.3,29.97,East,83,7.0,15.0,79,0.00,CLR,SCT,0.00,0.0,WeatherDisplay:10.37,2013-05-27 15:10:00,
2013-05-27 05:20:00,67.0,61.0,29.96,East,79,5.0,13.0,81,0.00,CLR,SCT,0.00,0.0,WeatherDisplay:10.37,2013-05-27 15:20:00,
2013-05-27 05:30:00,66.8,60.8,29.97,East,83,8.0,16.0,81,0.00,CLR,SCT,0.00,0.0,WeatherDisplay:10.37,2013-05-27 15:30:00,
2013-05-27 05:40:00,66.8,60.4,29.97,East,91,8.0,16.0,80,0.00,CLR,SCT,0.00,0.0,WeatherDisplay:10.37,2013-05-27 15:40:00,
2013-05-27 05:50:00,66.8,59.7,29.97,ESE,116,5.0,13.0,78,0.00,CLR,SCT,0.00,0.1,WeatherDisplay:10.37,2013-05-27 15:50:00,
2013-05-27 06:00:00,66.9,60.2,29.97,East,100,7.0,15.0,79,0.00,CLR,SCT,0.00,0.6,WeatherDisplay:10.37,2013-05-27 16:00:00,
2013-05-27 06:10:00,67.0,61.3,29.97,East,81,8.0,13.0,82,0.00,SCT,SCT,0.00,1.4,WeatherDisplay:10.37,2013-05-27 16:10:00,
2013-05-27 06:20:00,66.5,60.8,29.97,East,92,9.0,17.0,82,0.00,SCT,SCT,0.00,2.3,WeatherDisplay:10.37,2013-05-27 16:20:00,
2013-05-27 06:30:00,66.9,60.9,29.97,East,96,5.0,17.0,81,0.00,SCT,SCT,0.00,2.7,WeatherDisplay:10.37,2013-05-27 16:30:00,
2013-05-27 06:40:00,67.1,61.1,29.98,East,82,9.0,18.0,81,0.00,SCT,SCT,0.00,2.6,WeatherDisplay:10.37,2013-05-27 16:40:00,
2013-05-27 06:50:00,66.8,61.5,29.99,East,84,9.0,18.0,83,0.00,SCT,SCT,0.00,5.3,WeatherDisplay:10.37,2013-05-27 16:50:00,
2013-05-27 07:00:00,66.9,61.9,29.98,East,88,9.0,21.0,84,0.00,SCT,SCT,0.00,6.5,WeatherDisplay:10.37,2013-05-27 17:00:00,
2013-05-27 07:10:00,67.3,62.3,29.98,East,84,9.0,17.0,84,0.00,SCT,SCT,0.00,18.1,WeatherDisplay:10.37,2013-05-27 17:10:00,
2013-05-27 07:20:00,67.4,62.4,30.00,East,82,7.0,18.0,84,0.00,SCT,SCT,0.00,57.2,WeatherDisplay:10.37,2013-05-27 17:20:00,
2013-05-27 07:30:00,67.8,62.1,29.99,East,96,8.0,22.0,82,0.00,SCT,SCT,0.00,107.2,WeatherDisplay:10.37,2013-05-27 17:30:00,
2013-05-27 07:40:00,68.7,62.3,29.99,East,99,9.0,17.0,80,0.00,SCT,SCT,0.00,126.6,WeatherDisplay:10.37,2013-05-27 17:40:00,
2013-05-27 07:50:00,69.8,62.7,30.00,East,96,8.0,12.0,78,0.00,SCT,SCT,0.00,145.0,WeatherDisplay:10.37,2013-05-27 17:50:00,
2013-05-27 08:00:00,71.4,62.7,30.00,East,84,7.0,15.0,74,0.00,SCT,SCT,0.00,159.5,WeatherDisplay:10.37,2013-05-27 18:00:00,
2013-05-27 08:10:00,72.0,62.9,30.00,East,88,10.0,16.0,73,0.00,SCT,SCT,0.00,176.8,WeatherDisplay:10.37,2013-05-27 18:10:00,
2013-05-27 08:20:00,72.5,63.0,30.00,East,95,12.0,20.0,72,0.00,BKN,SCT,0.00,197.6,WeatherDisplay:10.37,2013-05-27 18:20:00,
2013-05-27 08:30:00,73.4,63.0,30.00,ESE,114,10.0,17.0,70,0.00,BKN,SCT,0.00,231.9,WeatherDisplay:10.37,2013-05-27 18:30:00,
2013-05-27 08:40:00,74.6,62.5,30.00,ESE,102,5.0,13.0,66,0.00,BKN,SCT,0.00,253.3,WeatherDisplay:10.37,2013-05-27 18:40:00,
2013-05-27 08:50:00,75.7,63.1,30.00,ENE,76,8.0,14.0,65,0.00,BKN,SCT,0.00,263.2,WeatherDisplay:10.37,2013-05-27 18:50:00,
2013-05-27 09:00:00,76.6,65.7,30.01,ENE,77,7.0,16.0,69,0.00,BKN,SCT,0.00,329.3,WeatherDisplay:10.37,2013-05-27 19:00:00,
2013-05-27 09:10:00,75.0,65.3,30.01,ENE,75,9.0,17.0,72,0.00,BKN,SCT,0.00,317.5,WeatherDisplay:10.37,2013-05-27 19:10:00,
2013-05-27 09:20:00,73.9,64.7,30.01,ENE,76,9.0,20.0,73,0.00,FEW,SCT,0.00,335.6,WeatherDisplay:10.37,2013-05-27 19:20:00,
2013-05-27 09:30:00,74.8,65.2,30.01,East,97,5.0,15.0,72,0.00,FEW,SCT,0.00,362.3,WeatherDisplay:10.37,2013-05-27 19:30:00,
2013-05-27 09:40:00,76.1,65.2,30.01,East,84,7.0,17.0,69,0.00,FEW,SCT,0.00,215.9,WeatherDisplay:10.37,2013-05-27 19:40:00,
2013-05-27 09:50:00,75.7,65.2,30.01,East,83,12.0,20.0,70,0.00,FEW,SCT,0.00,419.5,WeatherDisplay:10.37,2013-05-27 19:50:00,
2013-05-27 10:00:00,75.6,64.3,30.00,East,90,9.0,21.0,68,0.00,FEW,SCT,0.00,442.2,WeatherDisplay:10.37,2013-05-27 20:00:00,
2013-05-27 10:10:00,76.3,64.9,30.00,ESE,104,6.0,17.0,68,0.00,FEW,SCT,0.00,458.4,WeatherDisplay:10.37,2013-05-27 20:10:00,
2013-05-27 10:20:00,77.1,64.0,30.00,ESE,108,8.0,24.0,64,0.00,FEW,SCT,0.00,262.9,WeatherDisplay:10.37,2013-05-27 20:20:00,
2013-05-27 10:30:00,77.4,63.8,30.00,East,98,8.0,15.0,63,0.00,FEW,SCT,0.00,655.3,WeatherDisplay:10.37,2013-05-27 20:30:00,
2013-05-27 10:40:00,77.6,63.1,30.00,ESE,103,7.0,15.0,61,0.00,FEW,SCT,0.00,220.8,WeatherDisplay:10.37,2013-05-27 20:40:00,
2013-05-27 10:50:00,76.1,63.1,30.00,East,89,8.0,14.0,64,0.00,FEW,SCT,0.00,307.6,WeatherDisplay:10.37,2013-05-27 20:50:00,
2013-05-27 11:00:00,75.9,63.3,30.01,East,87,9.0,15.0,65,0.00,FEW,SCT,0.00,369.8,WeatherDisplay:10.37,2013-05-27 21:00:00,
2013-05-27 11:10:00,76.0,63.4,30.01,East,88,6.0,14.0,65,0.00,FEW,SCT,0.00,324.5,WeatherDisplay:10.37,2013-05-27 21:10:00,
2013-05-27 11:20:00,76.1,63.9,30.00,East,91,3.0,15.0,66,0.00,FEW,SCT,0.00,378.1,WeatherDisplay:10.37,2013-05-27 21:20:00,
2013-05-27 11:30:00,76.2,64.0,30.00,ENE,78,12.0,16.0,66,0.00,FEW,SCT,0.00,539.6,WeatherDisplay:10.37,2013-05-27 21:30:00,
2013-05-27 11:40:00,76.2,63.2,30.00,East,80,13.0,20.0,64,0.00,FEW,SCT,0.00,514.5,WeatherDisplay:10.37,2013-05-27 21:40:00,
2013-05-27 11:50:00,75.9,61.5,30.00,East,93,9.0,23.0,61,0.00,FEW,SCT,0.00,365.6,WeatherDisplay:10.37,2013-05-27 21:50:00,
2013-05-27 12:00:00,76.5,62.5,30.00,East,97,6.0,14.0,62,0.00,FEW,SCT,0.00,312.8,WeatherDisplay:10.37,2013-05-27 22:00:00,
2013-05-27 12:10:00,76.7,64.0,30.00,East,87,8.0,14.0,65,0.00,SCT,SCT,0.00,339.1,WeatherDisplay:10.37,2013-05-27 22:10:00,
2013-05-27 12:20:00,75.9,63.8,30.00,East,84,10.0,20.0,66,0.00,SCT,SCT,0.00,331.2,WeatherDisplay:10.37,2013-05-27 22:20:00,
2013-05-27 12:30:00,75.5,64.2,30.00,ENE,78,9.0,17.0,68,0.00,SCT,SCT,0.00,381.0,WeatherDisplay:10.37,2013-05-27 22:30:00,
2013-05-27 12:40:00,74.8,66.0,30.00,ENE,72,9.0,17.0,74,0.00,SCT,SCT,0.00,401.6,WeatherDisplay:10.37,2013-05-27 22:40:00,
2013-05-27 12:50:00,73.7,64.9,30.00,East,88,8.0,16.0,74,0.00,SCT,SCT,0.00,340.3,WeatherDisplay:10.37,2013-05-27 22:50:00,
2013-05-27 13:00:00,73.3,65.6,30.00,ENE,77,9.0,16.0,77,0.00,SCT,SCT,0.00,334.4,WeatherDisplay:10.37,2013-05-27 23:00:00,
2013-05-27 13:10:00,73.1,66.2,30.00,East,90,7.0,15.0,79,0.00,SCT,SCT,0.00,301.9,WeatherDisplay:10.37,2013-05-27 23:10:00,
2013-05-27 13:20:00,72.1,63.4,30.00,ESE,104,9.0,14.0,74,0.00,SCT,SCT,0.00,218.1,WeatherDisplay:10.37,2013-05-27 23:20:00,
2013-05-27 13:30:00,71.7,63.4,30.00,East,95,8.0,14.0,75,0.00,SCT,SCT,0.00,227.8,WeatherDisplay:10.37,2013-05-27 23:30:00,
2013-05-27 13:40:00,71.7,63.3,30.00,ESE,102,5.0,13.0,75,0.00,SCT,SCT,0.00,228.4,WeatherDisplay:10.37,2013-05-27 23:40:00,
2013-05-27 13:50:00,72.3,63.9,29.99,ESE,102,3.0,10.0,75,0.00,SCT,SCT,0.00,213.1,WeatherDisplay:10.37,2013-05-27 23:50:00,
2013-05-27 14:00:00,73.0,63.4,29.99,East,95,9.0,15.0,72,0.00,SCT,SCT,0.00,211.4,WeatherDisplay:10.37,2013-05-28 00:00:00,
2013-05-27 14:10:00,73.1,63.2,29.98,East,96,7.0,13.0,71,0.00,SCT,SCT,0.00,216.1,WeatherDisplay:10.37,2013-05-28 00:10:00,
2013-05-27 14:20:00,73.5,64.0,29.98,East,80,6.0,12.0,72,0.00,BKN,SCT,0.00,203.2,WeatherDisplay:10.37,2013-05-28 00:20:00,
2013-05-27 14:30:00,73.7,64.9,29.98,East,80,9.0,21.0,74,0.00,BKN,SCT,0.00,232.3,WeatherDisplay:10.37,2013-05-28 00:30:00,
2013-05-27 14:40:00,73.6,64.4,29.98,ENE,74,7.0,14.0,73,0.00,BKN,SCT,0.00,211.5,WeatherDisplay:10.37,2013-05-28 00:40:00,
2013-05-27 14:50:00,73.3,62.5,29.98,East,95,5.0,15.0,69,0.00,BKN,SCT,0.00,208.3,WeatherDisplay:10.37,2013-05-28 00:50:00,
2013-05-27 15:00:00,73.7,64.6,29.98,East,88,7.0,12.0,73,0.00,BKN,SCT,0.00,219.7,WeatherDisplay:10.37,2013-05-28 01:00:00,
2013-05-27 15:10:00,74.1,64.9,29.97,East,85,8.0,13.0,73,0.00,BKN,SCT,0.00,176.7,WeatherDisplay:10.37,2013-05-28 01:10:00,
2013-05-27 15:20:00,73.4,65.4,29.97,East,82,6.0,12.0,76,0.00,BKN,SCT,0.00,179.6,WeatherDisplay:10.37,2013-05-28 01:20:00,
2013-05-27 15:30:00,73.3,64.9,29.97,East,88,6.0,15.0,75,0.00,BKN,SCT,0.00,186.6,WeatherDisplay:10.37,2013-05-28 01:30:00,
2013-05-27 15:40:00,73.8,65.0,29.97,East,87,8.0,12.0,74,0.00,BKN,SCT,0.00,144.7,WeatherDisplay:10.37,2013-05-28 01:40:00,
2013-05-27 15:50:00,73.8,64.6,29.96,East,83,7.0,17.0,73,0.00,BKN,SCT,0.00,120.2,WeatherDisplay:10.37,2013-05-28 01:50:00,
2013-05-27 16:00:00,73.0,64.6,29.96,ENE,71,10.0,20.0,75,0.00,BKN,SCT,0.00,107.4,WeatherDisplay:10.37,2013-05-28 02:00:00,
2013-05-27 16:10:00,73.1,63.9,29.96,East,85,10.0,15.0,73,0.00,BKN,SCT,0.00,87.1,WeatherDisplay:10.37,2013-05-28 02:10:00,
2013-05-27 16:20:00,72.9,64.1,29.96,East,89,9.0,20.0,74,0.00,BKN,SCT,0.00,72.4,WeatherDisplay:10.37,2013-05-28 02:20:00,
2013-05-27 16:30:00,72.8,64.0,29.95,East,82,8.0,15.0,74,0.00,BKN,SCT,0.00,65.0,WeatherDisplay:10.37,2013-05-28 02:30:00,
2013-05-27 16:40:00,72.6,65.0,29.96,ENE,65,8.0,16.0,77,0.00,BKN,SCT,0.00,51.9,WeatherDisplay:10.37,2013-05-28 02:40:00,
2013-05-27 16:50:00,71.8,65.3,29.95,ENE,67,10.0,15.0,80,0.00,BKN,SCT,0.00,44.5,WeatherDisplay:10.37,2013-05-28 02:50:00,
2013-05-27 17:00:00,70.8,64.6,29.96,ENE,73,3.0,18.0,81,0.00,BKN,SCT,0.00,33.2,WeatherDisplay:10.37,2013-05-28 03:00:00,
2013-05-27 17:10:00,70.1,64.0,29.96,East,86,13.0,16.0,81,0.00,BKN,SCT,0.00,28.8,WeatherDisplay:10.37,2013-05-28 03:10:00,
2013-05-27 17:20:00,69.8,64.1,29.96,East,87,8.0,20.0,82,0.00,BKN,SCT,0.00,19.6,WeatherDisplay:10.37,2013-05-28 03:20:00,
2013-05-27 17:30:00,69.7,64.3,29.96,East,88,9.0,15.0,83,0.00,BKN,SCT,0.00,18.4,WeatherDisplay:10.37,2013-05-28 03:30:00,
2013-05-27 17:40:00,69.4,63.3,29.96,East,85,7.0,15.0,81,0.00,BKN,SCT,0.00,12.0,WeatherDisplay:10.37,2013-05-28 03:40:00,
2013-05-27 17:50:00,69.6,62.8,29.96,East,94,8.0,15.0,79,0.00,BKN,SCT,0.00,7.9,WeatherDisplay:10.37,2013-05-28 03:50:00,
2013-05-27 18:00:00,69.8,62.6,29.97,East,80,9.0,13.0,78,0.00,BKN,SCT,0.00,6.4,WeatherDisplay:10.37,2013-05-28 04:00:00,
2013-05-27 18:10:00,70.0,62.1,29.97,East,89,6.0,15.0,76,0.00,BKN,SCT,0.00,4.0,WeatherDisplay:10.37,2013-05-28 04:10:00,
2013-05-27 18:20:00,70.3,62.0,29.97,East,79,3.0,9.0,75,0.00,BKN,SCT,0.00,2.7,WeatherDisplay:10.37,2013-05-28 04:20:00,
2013-05-27 18:30:00,70.4,62.8,29.97,ENE,71,6.0,9.0,77,0.00,BKN,SCT,0.00,1.5,WeatherDisplay:10.37,2013-05-28 04:30:00,
2013-05-27 18:40:00,70.2,61.9,29.97,ESE,108,5.0,14.0,75,0.00,BKN,SCT,0.00,0.7,WeatherDisplay:10.37,2013-05-28 04:40:00,
2013-05-27 18:50:00,70.4,61.7,29.98,ESE,109,1.0,10.0,74,0.00,BKN,SCT,0.00,0.1,WeatherDisplay:10.37,2013-05-28 04:50:00,
2013-05-27 19:00:00,70.4,62.1,29.98,ENE,76,1.0,5.0,75,0.00,BKN,SCT,0.00,0.0,WeatherDisplay:10.37,2013-05-28 05:00:00,
2013-05-27 19:10:00,70.4,61.3,29.99,NE,53,8.0,12.0,73,0.00,OVC,SCT,0.00,0.0,WeatherDisplay:10.37,2013-05-28 05:10:00,
2013-05-27 19:20:00,70.2,61.1,29.99,East,91,3.0,12.0,73,0.00,OVC,SCT,0.00,0.0,WeatherDisplay:10.37,2013-05-28 05:20:00,
2013-05-27 19:30:00,70.1,60.7,29.99,ESE,117,3.0,8.0,72,0.00,OVC,SCT,0.00,0.0,WeatherDisplay:10.37,2013-05-28 05:30:00,
2013-05-27 19:40:00,70.4,60.9,30.00,East,91,5.0,8.0,72,0.00,OVC,SCT,0.00,0.0,WeatherDisplay:10.37,2013-05-28 05:40:00,
2013-05-27 19:50:00,70.2,60.4,30.00,SE,128,0.0,8.0,71,0.00,OVC,SCT,0.00,0.0,WeatherDisplay:10.37,2013-05-28 05:50:00,
2013-05-27 20:00:00,69.9,60.8,30.00,ENE,78,0.0,5.0,73,0.00,OVC,SCT,0.00,0.0,WeatherDisplay:10.37,2013-05-28 06:00:00,
2013-05-27 20:10:00,69.4,61.5,30.01,SSE,151,0.0,3.0,76,0.00,OVC,SCT,0.00,0.0,WeatherDisplay:10.37,2013-05-28 06:10:00,
2013-05-27 20:20:00,69.0,61.1,30.01,East,94,2.0,7.0,76,0.00,OVC,SCT,0.00,0.0,WeatherDisplay:10.37,2013-05-28 06:20:00,
2013-05-27 20:30:00,69.3,61.4,30.01,East,89,2.0,15.0,76,0.00,OVC,SCT,0.00,0.0,WeatherDisplay:10.37,2013-05-28 06:30:00,
2013-05-27 20:40:00,69.3,61.0,30.01,ESE,110,3.0,10.0,75,0.00,OVC,SCT,0.00,0.0,WeatherDisplay:10.37,2013-05-28 06:40:00,
2013-05-27 20:50:00,69.2,60.6,30.02,ESE,109,6.0,9.0,74,0.00,OVC,SCT,0.00,0.0,WeatherDisplay:10.37,2013-05-28 06:50:00,
2013-05-27 21:00:00,69.4,60.7,30.02,ESE,109,7.0,8.0,74,0.00,OVC,SCT,0.00,0.0,WeatherDisplay:10.37,2013-05-28 07:00:00,
2013-05-27 21:10:00,69.3,60.7,30.02,East,81,3.0,9.0,74,0.00,BKN,SCT,0.00,0.0,WeatherDisplay:10.37,2013-05-28 07:10:00,
2013-05-27 21:20:00,69.2,60.9,30.02,East,90,1.0,7.0,75,0.00,BKN,SCT,0.00,0.0,WeatherDisplay:10.37,2013-05-28 07:20:00,
2013-05-27 21:30:00,68.9,60.6,30.03,East,89,5.0,9.0,75,0.00,BKN,SCT,0.00,0.0,WeatherDisplay:10.37,2013-05-28 07:30:00,
2013-05-27 21:40:00,68.9,60.6,30.03,East,80,7.0,13.0,75,0.00,BKN,SCT,0.00,0.0,WeatherDisplay:10.37,2013-05-28 07:40:00,
2013-05-27 21:50:00,69.0,60.4,30.03,ENE,76,7.0,12.0,74,0.00,BKN,SCT,0.00,0.0,WeatherDisplay:10.37,2013-05-28 07:50:00,
2013-05-27 22:00:00,69.0,60.0,30.03,East,91,8.0,16.0,73,0.00,BKN,SCT,0.00,0.0,WeatherDisplay:10.37,2013-05-28 08:00:00,
2013-05-27 22:10:00,69.1,60.1,30.03,East,80,5.0,13.0,73,0.00,SCT,SCT,0.00,0.0,WeatherDisplay:10.37,2013-05-28 08:10:00,
2013-05-27 22:20:00,68.7,60.1,30.04,ESE,112,2.0,7.0,74,0.00,SCT,SCT,0.00,0.0,WeatherDisplay:10.37,2013-05-28 08:20:00,
2013-05-27 22:30:00,68.2,60.4,30.04,ESE,116,1.0,10.0,76,0.00,SCT,SCT,0.00,0.0,WeatherDisplay:10.37,2013-05-28 08:30:00,
2013-05-27 22:40:00,68.0,60.2,30.04,ESE,103,0.0,4.0,76,0.00,SCT,SCT,0.00,0.0,WeatherDisplay:10.37,2013-05-28 08:40:00,
2013-05-27 22:50:00,67.7,60.2,30.03,East,99,1.0,6.0,77,0.00,SCT,SCT,0.00,0.0,WeatherDisplay:10.37,2013-05-28 08:50:00,
2013-05-27 23:00:00,67.6,59.4,30.03,East,95,5.0,9.0,75,0.00,SCT,SCT,0.00,0.0,WeatherDisplay:10.37,2013-05-28 09:00:00,
2013-05-27 23:10:00,67.9,59.3,30.03,ENE,77,6.0,10.0,74,0.00,OVC,SCT,0.00,0.0,WeatherDisplay:10.37,2013-05-28 09:10:00,
2013-05-27 23:20:00,68.2,58.8,30.02,East,89,2.0,9.0,72,0.00,OVC,SCT,0.00,0.0,WeatherDisplay:10.37,2013-05-28 09:20:00,
2013-05-27 23:30:00,67.9,59.3,30.02,East,96,1.0,4.0,74,0.00,OVC,SCT,0.00,0.0,WeatherDisplay:10.37,2013-05-28 09:30:00,
2013-05-27 23:40:00,67.4,59.9,30.03,East,101,2.0,6.0,77,0.00,OVC,SCT,0.00,0.0,WeatherDisplay:10.37,2013-05-28 09:40:00,
2013-05-27 23:50:00,67.0,60.3,30.03,ESE,102,0.0,5.0,79,0.00,OVC,SCT,0.00,0.0,WeatherDisplay:10.37,2013-05-28 09:50:00,